sensor_id;sensor_type;location;lat;lon;timestamp;pressure;altitude;pressure_sealevel;temperature;humidity
17060;BME280;8646;49.716;9.266;2022-12-20T00:00:41;100963.94;;;1.30;91.99
17060;BME280;8646;49.716;9.266;2022-12-20T00:03:44;100954.25;;;1.46;91.91
17060;BME280;8646;49.716;9.266;2022-12-20T00:06:47;100949.84;;;1.57;90.79
17060;BME280;8646;49.716;9.266;2022-12-20T00:09:49;100943.59;;;1.55;90.97
17060;BME280;8646;49.716;9.266;2022-12-20T00:12:53;100927.63;;;1.61;90.08
17060;BME280;8646;49.716;9.266;2022-12-20T00:16:04;100939.19;;;1.54;90.73
17060;BME280;8646;49.716;9.266;2022-12-20T00:19:09;100900.84;;;1.31;90.93
17060;BME280;8646;49.716;9.266;2022-12-20T00:22:12;100932.03;;;1.51;90.81
17060;BME280;8646;49.716;9.266;2022-12-20T00:25:15;100925.78;;;1.42;91.26
17060;BME280;8646;49.716;9.266;2022-12-20T00:28:20;100916.91;;;1.46;91.42
17060;BME280;8646;49.716;9.266;2022-12-20T00:31:27;100913.34;;;1.47;91.69
17060;BME280;8646;49.716;9.266;2022-12-20T00:34:30;100899.09;;;1.42;91.46
17060;BME280;8646;49.716;9.266;2022-12-20T00:37:33;100913.41;;;1.62;90.93
17060;BME280;8646;49.716;9.266;2022-12-20T00:40:36;100908.06;;;1.53;91.26
17060;BME280;8646;49.716;9.266;2022-12-20T00:43:41;100897.38;;;1.56;91.36
17060;BME280;8646;49.716;9.266;2022-12-20T00:46:44;100893.78;;;1.48;91.96
17060;BME280;8646;49.716;9.266;2022-12-20T00:49:47;100889.41;;;1.61;90.96
17060;BME280;8646;49.716;9.266;2022-12-20T00:52:49;100880.44;;;1.48;92.05
17060;BME280;8646;49.716;9.266;2022-12-20T00:55:52;100879.63;;;1.70;90.99
17060;BME280;8646;49.716;9.266;2022-12-20T00:58:58;100883.16;;;1.63;90.90
17060;BME280;8646;49.716;9.266;2022-12-20T01:02:02;100885.78;;;1.49;92.06
17060;BME280;8646;49.716;9.266;2022-12-20T01:05:06;100885.84;;;1.62;91.46
17060;BME280;8646;49.716;9.266;2022-12-20T01:08:09;100892.06;;;1.68;91.12
17060;BME280;8646;49.716;9.266;2022-12-20T01:11:18;100899.16;;;1.63;91.28
17060;BME280;8646;49.716;9.266;2022-12-20T01:14:22;100902.75;;;1.62;91.66
17060;BME280;8646;49.716;9.266;2022-12-20T01:17:25;100896.50;;;1.59;92.07
17060;BME280;8646;49.716;9.266;2022-12-20T01:20:28;100904.53;;;1.72;91.26
17060;BME280;8646;49.716;9.266;2022-12-20T01:23:31;100904.53;;;1.66;91.16
17060;BME280;8646;49.716;9.266;2022-12-20T01:26:34;100908.91;;;1.43;92.57
17060;BME280;8646;49.716;9.266;2022-12-20T01:29:39;100887.59;;;1.60;91.71
17060;BME280;8646;49.716;9.266;2022-12-20T01:32:41;100893.81;;;1.51;92.18
17060;BME280;8646;49.716;9.266;2022-12-20T01:35:54;100900.03;;;1.54;92.63
17060;BME280;8646;49.716;9.266;2022-12-20T01:38:58;100891.22;;;1.77;91.14
17060;BME280;8646;49.716;9.266;2022-12-20T01:42:01;100887.63;;;1.72;91.43
17060;BME280;8646;49.716;9.266;2022-12-20T01:45:12;100891.19;;;1.72;90.97
17060;BME280;8646;49.716;9.266;2022-12-20T01:48:20;100880.47;;;1.63;91.55
17060;BME280;8646;49.716;9.266;2022-12-20T01:51:24;100876.94;;;1.58;92.22
17060;BME280;8646;49.716;9.266;2022-12-20T01:54:31;100874.25;;;1.46;92.44
17060;BME280;8646;49.716;9.266;2022-12-20T01:57:39;100868.91;;;1.55;92.16
17060;BME280;8646;49.716;9.266;2022-12-20T02:00:45;100863.59;;;1.53;92.07
17060;BME280;8646;49.716;9.266;2022-12-20T02:03:51;100835.06;;;1.39;92.28
17060;BME280;8646;49.716;9.266;2022-12-20T02:06:55;100872.47;;;1.51;92.65
17060;BME280;8646;49.716;9.266;2022-12-20T02:10:00;100866.28;;;1.60;92.68
17060;BME280;8646;49.716;9.266;2022-12-20T02:13:07;100887.63;;;1.61;92.46
17060;BME280;8646;49.716;9.266;2022-12-20T02:16:18;100888.50;;;1.54;93.01
17060;BME280;8646;49.716;9.266;2022-12-20T02:19:41;100884.91;;;1.43;94.10
17060;BME280;8646;49.716;9.266;2022-12-20T02:23:02;100868.91;;;1.55;93.93
17060;BME280;8646;49.716;9.266;2022-12-20T02:26:27;100849.38;;;1.68;93.36
17060;BME280;8646;49.716;9.266;2022-12-20T02:29:35;100844.97;;;1.85;92.75
17060;BME280;8646;49.716;9.266;2022-12-20T02:32:46;100837.84;;;1.89;92.24
17060;BME280;8646;49.716;9.266;2022-12-20T02:35:49;100840.50;;;1.81;92.73
17060;BME280;8646;49.716;9.266;2022-12-20T02:38:52;100838.72;;;1.77;93.03
17060;BME280;8646;49.716;9.266;2022-12-20T02:41:59;100837.81;;;1.80;92.61
17060;BME280;8646;49.716;9.266;2022-12-20T02:45:07;100819.13;;;1.66;92.91
17060;BME280;8646;49.716;9.266;2022-12-20T02:48:18;100841.38;;;1.71;93.11
17060;BME280;8646;49.716;9.266;2022-12-20T02:51:23;100833.38;;;1.62;95.21
17060;BME280;8646;49.716;9.266;2022-12-20T02:54:28;100825.34;;;1.50;95.26
17060;BME280;8646;49.716;9.266;2022-12-20T02:57:37;100826.22;;;1.55;96.33
17060;BME280;8646;49.716;9.266;2022-12-20T03:00:46;100812.91;;;1.64;95.53
17060;BME280;8646;49.716;9.266;2022-12-20T03:03:52;100814.69;;;1.71;94.86
17060;BME280;8646;49.716;9.266;2022-12-20T03:06:58;100791.56;;;1.72;94.61
17060;BME280;8646;49.716;9.266;2022-12-20T03:10:01;100806.69;;;1.59;95.61
17060;BME280;8646;49.716;9.266;2022-12-20T03:13:04;100784.44;;;1.72;95.23
17060;BME280;8646;49.716;9.266;2022-12-20T03:16:07;100776.44;;;1.63;95.07
17060;BME280;8646;49.716;9.266;2022-12-20T03:19:12;100794.22;;;1.64;95.12
17060;BME280;8646;49.716;9.266;2022-12-20T03:22:15;100793.34;;;1.62;95.65
17060;BME280;8646;49.716;9.266;2022-12-20T03:25:18;100802.25;;;1.73;95.12
17060;BME280;8646;49.716;9.266;2022-12-20T03:28:21;100797.81;;;1.75;94.83
17060;BME280;8646;49.716;9.266;2022-12-20T03:31:24;100792.44;;;1.57;95.82
17060;BME280;8646;49.716;9.266;2022-12-20T03:34:28;100779.09;;;1.65;96.13
17060;BME280;8646;49.716;9.266;2022-12-20T03:37:31;100790.69;;;1.53;96.33
17060;BME280;8646;49.716;9.266;2022-12-20T03:40:34;100784.44;;;1.72;95.65
17060;BME280;8646;49.716;9.266;2022-12-20T03:43:37;100788.91;;;1.88;94.83
17060;BME280;8646;49.716;9.266;2022-12-20T03:46:39;100789.81;;;1.94;94.56
17060;BME280;8646;49.716;9.266;2022-12-20T03:49:44;100787.13;;;1.80;95.25
17060;BME280;8646;49.716;9.266;2022-12-20T03:52:47;100795.13;;;1.68;95.61
17060;BME280;8646;49.716;9.266;2022-12-20T03:55:49;100792.47;;;1.84;95.58
17060;BME280;8646;49.716;9.266;2022-12-20T03:58:52;100799.59;;;2.01;94.33
17060;BME280;8646;49.716;9.266;2022-12-20T04:01:55;100799.59;;;2.01;93.76
17060;BME280;8646;49.716;9.266;2022-12-20T04:04:59;100790.66;;;1.96;94.11
17060;BME280;8646;49.716;9.266;2022-12-20T04:08:02;100790.69;;;1.99;93.99
17060;BME280;8646;49.716;9.266;2022-12-20T04:11:06;100777.34;;;1.85;94.39
17060;BME280;8646;49.716;9.266;2022-12-20T04:14:17;100779.13;;;1.89;94.47
17060;BME280;8646;49.716;9.266;2022-12-20T04:17:20;100773.75;;;1.95;94.18
17060;BME280;8646;49.716;9.266;2022-12-20T04:20:24;100756.88;;;1.98;93.98
17060;BME280;8646;49.716;9.266;2022-12-20T04:23:27;100767.53;;;1.98;94.08
17060;BME280;8646;49.716;9.266;2022-12-20T04:26:30;100745.31;;;1.83;94.16
17060;BME280;8646;49.716;9.266;2022-12-20T04:29:33;100759.56;;;1.93;94.56
17060;BME280;8646;49.716;9.266;2022-12-20T04:32:36;100754.19;;;2.01;94.39
17060;BME280;8646;49.716;9.266;2022-12-20T04:35:40;100753.31;;;1.99;93.92
17060;BME280;8646;49.716;9.266;2022-12-20T04:38:43;100758.69;;;1.86;95.07
17060;BME280;8646;49.716;9.266;2022-12-20T04:41:45;100764.91;;;1.76;95.99
17060;BME280;8646;49.716;9.266;2022-12-20T04:44:48;100761.31;;;1.79;96.27
17060;BME280;8646;49.716;9.266;2022-12-20T04:47:51;100763.09;;;1.90;95.59
17060;BME280;8646;49.716;9.266;2022-12-20T04:50:55;100755.97;;;2.06;94.31
17060;BME280;8646;49.716;9.266;2022-12-20T04:53:58;100748.84;;;2.07;94.76
17060;BME280;8646;49.716;9.266;2022-12-20T04:57:01;100727.47;;;2.13;94.25
17060;BME280;8646;49.716;9.266;2022-12-20T05:00:05;100726.56;;;2.24;93.53
17060;BME280;8646;49.716;9.266;2022-12-20T05:03:09;100716.81;;;2.19;93.30
17060;BME280;8646;49.716;9.266;2022-12-20T05:06:13;100699.03;;;2.03;93.65
17060;BME280;8646;49.716;9.266;2022-12-20T05:09:16;100715.91;;;2.14;93.51
17060;BME280;8646;49.716;9.266;2022-12-20T05:12:19;100720.31;;;2.19;93.45
17060;BME280;8646;49.716;9.266;2022-12-20T05:15:22;100721.25;;;2.09;94.21
17060;BME280;8646;49.716;9.266;2022-12-20T05:18:25;100685.66;;;2.06;93.03
17060;BME280;8646;49.716;9.266;2022-12-20T05:21:30;100703.44;;;2.13;93.34
17060;BME280;8646;49.716;9.266;2022-12-20T05:24:50;100705.22;;;2.14;93.61
17060;BME280;8646;49.716;9.266;2022-12-20T05:28:10;100705.28;;;1.91;94.19
17060;BME280;8646;49.716;9.266;2022-12-20T05:31:13;100727.47;;;2.17;94.04
17060;BME280;8646;49.716;9.266;2022-12-20T05:34:15;100713.22;;;2.12;93.86
17060;BME280;8646;49.716;9.266;2022-12-20T05:37:20;100717.66;;;2.24;93.87
17060;BME280;8646;49.716;9.266;2022-12-20T05:40:22;100725.66;;;2.19;93.63
17060;BME280;8646;49.716;9.266;2022-12-20T05:43:25;100732.81;;;2.17;93.89
17060;BME280;8646;49.716;9.266;2022-12-20T05:46:28;100729.25;;;2.03;95.02
17060;BME280;8646;49.716;9.266;2022-12-20T05:49:31;100737.28;;;1.99;95.60
17060;BME280;8646;49.716;9.266;2022-12-20T05:52:35;100740.81;;;2.22;94.56
17060;BME280;8646;49.716;9.266;2022-12-20T05:55:42;100728.34;;;2.27;94.00
17060;BME280;8646;49.716;9.266;2022-12-20T05:58:45;100727.47;;;2.19;93.90
17060;BME280;8646;49.716;9.266;2022-12-20T06:01:48;100710.56;;;2.17;94.52
17060;BME280;8646;49.716;9.266;2022-12-20T06:04:51;100722.09;;;2.22;94.48
17060;BME280;8646;49.716;9.266;2022-12-20T06:07:55;100725.69;;;2.18;94.88
17060;BME280;8646;49.716;9.266;2022-12-20T06:10:58;100722.13;;;2.13;94.66
17060;BME280;8646;49.716;9.266;2022-12-20T06:14:02;100726.56;;;2.23;94.58
17060;BME280;8646;49.716;9.266;2022-12-20T06:17:05;100729.25;;;2.26;94.29
17060;BME280;8646;49.716;9.266;2022-12-20T06:20:14;100728.38;;;2.06;95.22
17060;BME280;8646;49.716;9.266;2022-12-20T06:23:21;100722.13;;;2.17;95.38
17060;BME280;8646;49.716;9.266;2022-12-20T06:26:24;100724.75;;;2.33;93.99
17060;BME280;8646;49.716;9.266;2022-12-20T06:29:26;100731.91;;;2.26;94.60
17060;BME280;8646;49.716;9.266;2022-12-20T06:32:29;100714.03;;;2.36;94.45
17060;BME280;8646;49.716;9.266;2022-12-20T06:35:32;100715.84;;;2.29;94.44
17060;BME280;8646;49.716;9.266;2022-12-20T06:38:36;100696.25;;;2.42;93.16
17060;BME280;8646;49.716;9.266;2022-12-20T06:41:39;100699.78;;;2.46;93.29
17060;BME280;8646;49.716;9.266;2022-12-20T06:44:42;100700.69;;;2.40;93.44
17060;BME280;8646;49.716;9.266;2022-12-20T06:47:45;100709.56;;;2.44;93.57
17060;BME280;8646;49.716;9.266;2022-12-20T06:50:48;100707.81;;;2.38;93.51
17060;BME280;8646;49.716;9.266;2022-12-20T06:53:57;100701.63;;;2.35;94.10
17060;BME280;8646;49.716;9.266;2022-12-20T06:57:01;100699.78;;;2.47;93.26
17060;BME280;8646;49.716;9.266;2022-12-20T07:00:05;100714.97;;;2.35;93.91
17060;BME280;8646;49.716;9.266;2022-12-20T07:03:09;100704.34;;;2.16;94.99
17060;BME280;8646;49.716;9.266;2022-12-20T07:06:12;100701.63;;;2.30;94.67
17060;BME280;8646;49.716;9.266;2022-12-20T07:09:16;100696.25;;;2.38;94.28
17060;BME280;8646;49.716;9.266;2022-12-20T07:12:19;100695.38;;;2.29;94.43
17060;BME280;8646;49.716;9.266;2022-12-20T07:15:22;100690.94;;;2.30;94.82
17060;BME280;8646;49.716;9.266;2022-12-20T07:18:26;100685.50;;;2.56;93.26
17060;BME280;8646;49.716;9.266;2022-12-20T07:21:29;100684.59;;;2.54;93.23
17060;BME280;8646;49.716;9.266;2022-12-20T07:24:33;100689.06;;;2.53;93.47
17060;BME280;8646;49.716;9.266;2022-12-20T07:27:39;100706.88;;;2.59;93.53
17060;BME280;8646;49.716;9.266;2022-12-20T07:30:42;100714.06;;;2.39;94.31
17060;BME280;8646;49.716;9.266;2022-12-20T07:33:45;100709.56;;;2.44;94.63
17060;BME280;8646;49.716;9.266;2022-12-20T07:36:47;100725.66;;;2.22;96.01
17060;BME280;8646;49.716;9.266;2022-12-20T07:39:52;100717.66;;;2.27;96.14
17060;BME280;8646;49.716;9.266;2022-12-20T07:42:54;100714.06;;;2.37;95.85
17060;BME280;8646;49.716;9.266;2022-12-20T07:45:57;100709.56;;;2.44;94.95
17060;BME280;8646;49.716;9.266;2022-12-20T07:49:03;100715.84;;;2.38;95.83
17060;BME280;8646;49.716;9.266;2022-12-20T07:52:07;100707.78;;;2.46;94.92
17060;BME280;8646;49.716;9.266;2022-12-20T07:55:15;100712.28;;;2.42;95.28
17060;BME280;8646;49.716;9.266;2022-12-20T07:58:20;100718.50;;;2.43;95.23
17060;BME280;8646;49.716;9.266;2022-12-20T08:01:24;100713.13;;;2.49;95.38
17060;BME280;8646;49.716;9.266;2022-12-20T08:04:29;100715.84;;;2.29;96.27
17060;BME280;8646;49.716;9.266;2022-12-20T08:07:32;100723.03;;;2.18;97.20
17060;BME280;8646;49.716;9.266;2022-12-20T08:10:38;100717.66;;;2.21;98.00
17060;BME280;8646;49.716;9.266;2022-12-20T08:13:41;100707.00;;;2.18;98.11
17060;BME280;8646;49.716;9.266;2022-12-20T08:16:48;100701.63;;;2.35;97.48
17060;BME280;8646;49.716;9.266;2022-12-20T08:19:52;100693.53;;;2.45;96.30
17060;BME280;8646;49.716;9.266;2022-12-20T08:22:57;100695.31;;;2.49;95.98
17060;BME280;8646;49.716;9.266;2022-12-20T08:26:02;100657.13;;;2.23;95.54
17060;BME280;8646;49.716;9.266;2022-12-20T08:29:06;100689.97;;;2.51;95.72
17060;BME280;8646;49.716;9.266;2022-12-20T08:32:09;100694.44;;;2.50;95.81
17060;BME280;8646;49.716;9.266;2022-12-20T08:35:21;100679.25;;;2.55;95.59
17060;BME280;8646;49.716;9.266;2022-12-20T08:38:26;100673.03;;;2.56;95.50
17060;BME280;8646;49.716;9.266;2022-12-20T08:41:30;100667.69;;;2.59;95.43
17060;BME280;8646;49.716;9.266;2022-12-20T08:44:35;100657.84;;;2.64;95.50
17060;BME280;8646;49.716;9.266;2022-12-20T08:47:38;100653.44;;;2.54;95.68
17060;BME280;8646;49.716;9.266;2022-12-20T08:50:41;100667.72;;;2.46;96.35
17060;BME280;8646;49.716;9.266;2022-12-20T08:53:44;100665.81;;;2.72;96.00
17060;BME280;8646;49.716;9.266;2022-12-20T08:56:48;100665.75;;;2.80;95.35
17060;BME280;8646;49.716;9.266;2022-12-20T08:59:51;100656.81;;;2.90;94.86
17060;BME280;8646;49.716;9.266;2022-12-20T09:02:54;100618.59;;;2.76;93.94
17060;BME280;8646;49.716;9.266;2022-12-20T09:05:59;100649.56;;;3.04;93.68
17060;BME280;8646;49.716;9.266;2022-12-20T09:09:05;100654.88;;;3.10;93.72
17060;BME280;8646;49.716;9.266;2022-12-20T09:12:12;100657.47;;;3.18;93.66
17060;BME280;8646;49.716;9.266;2022-12-20T09:15:15;100656.50;;;3.29;92.84
17060;BME280;8646;49.716;9.266;2022-12-20T09:18:17;100638.59;;;3.40;92.57
17060;BME280;8646;49.716;9.266;2022-12-20T09:21:23;100625.16;;;3.48;91.55
17060;BME280;8646;49.716;9.266;2022-12-20T09:24:36;100633.25;;;3.40;92.37
17060;BME280;8646;49.716;9.266;2022-12-20T09:27:40;100630.47;;;3.50;91.60
17060;BME280;8646;49.716;9.266;2022-12-20T09:30:43;100633.94;;;3.61;90.88
17060;BME280;8646;49.716;9.266;2022-12-20T09:33:46;100631.25;;;3.61;90.88
17060;BME280;8646;49.716;9.266;2022-12-20T09:36:51;100631.31;;;3.55;91.56
17060;BME280;8646;49.716;9.266;2022-12-20T09:39:54;100619.69;;;3.59;91.00
17060;BME280;8646;49.716;9.266;2022-12-20T09:42:58;100597.50;;;3.48;92.50
17060;BME280;8646;49.716;9.266;2022-12-20T09:46:04;100603.53;;;3.69;90.66
17060;BME280;8646;49.716;9.266;2022-12-20T09:49:10;100603.63;;;3.59;91.46
17060;BME280;8646;49.716;9.266;2022-12-20T09:52:24;100593.88;;;3.53;91.63
17060;BME280;8646;49.716;9.266;2022-12-20T09:55:34;100592.00;;;3.60;91.01
17060;BME280;8646;49.716;9.266;2022-12-20T09:58:56;100601.84;;;3.59;91.07
17060;BME280;8646;49.716;9.266;2022-12-20T10:02:08;100595.59;;;3.59;91.22
17060;BME280;8646;49.716;9.266;2022-12-20T10:05:45;100596.53;;;3.55;91.50
17060;BME280;8646;49.716;9.266;2022-12-20T10:08:56;100595.56;;;3.65;91.42
17060;BME280;8646;49.716;9.266;2022-12-20T10:12:06;100592.81;;;3.69;91.05
17060;BME280;8646;49.716;9.266;2022-12-20T10:15:27;100590.06;;;3.77;90.97
17060;BME280;8646;49.716;9.266;2022-12-20T10:18:49;100588.19;;;3.82;90.30
17060;BME280;8646;49.716;9.266;2022-12-20T10:22:04;100583.78;;;3.81;90.39
17060;BME280;8646;49.716;9.266;2022-12-20T10:25:15;100583.78;;;3.81;90.59
17060;BME280;8646;49.716;9.266;2022-12-20T10:28:19;100590.88;;;3.82;90.42
17060;BME280;8646;49.716;9.266;2022-12-20T10:31:26;100587.31;;;3.81;90.28
17060;BME280;8646;49.716;9.266;2022-12-20T10:34:30;100572.13;;;3.85;90.78
17060;BME280;8646;49.716;9.266;2022-12-20T10:37:56;100565.84;;;3.88;91.21
17060;BME280;8646;49.716;9.266;2022-12-20T10:41:15;100557.56;;;4.07;90.27
17060;BME280;8646;49.716;9.266;2022-12-20T10:44:25;100546.00;;;4.05;89.77
17060;BME280;8646;49.716;9.266;2022-12-20T10:47:43;100542.53;;;3.97;90.17
17060;BME280;8646;49.716;9.266;2022-12-20T10:50:54;100547.81;;;4.00;89.90
17060;BME280;8646;49.716;9.266;2022-12-20T10:53:59;100542.47;;;4.02;89.77
17060;BME280;8646;49.716;9.266;2022-12-20T10:57:17;100521.31;;;3.79;90.30
17060;BME280;8646;49.716;9.266;2022-12-20T11:00:27;100528.28;;;3.92;90.29
17060;BME280;8646;49.716;9.266;2022-12-20T11:03:32;100529.06;;;4.02;90.24
17060;BME280;8646;49.716;9.266;2022-12-20T11:06:42;100527.38;;;3.96;90.54
17060;BME280;8646;49.716;9.266;2022-12-20T11:09:51;100525.41;;;4.09;90.15
17060;BME280;8646;49.716;9.266;2022-12-20T11:12:57;100530.75;;;4.09;89.82
17060;BME280;8646;49.716;9.266;2022-12-20T11:16:02;100526.28;;;4.09;89.96
17060;BME280;8646;49.716;9.266;2022-12-20T11:22:40;100519.16;;;4.08;90.39
17060;BME280;8646;49.716;9.266;2022-12-20T11:26:14;100508.19;;;4.28;89.60
17060;BME280;8646;49.716;9.266;2022-12-20T11:29:38;100506.44;;;4.22;89.77
17060;BME280;8646;49.716;9.266;2022-12-20T11:33:07;100497.44;;;4.30;89.51
17060;BME280;8646;49.716;9.266;2022-12-20T11:36:20;100481.47;;;4.22;89.55
17060;BME280;8646;49.716;9.266;2022-12-20T11:39:29;100484.19;;;4.20;89.61
17060;BME280;8646;49.716;9.266;2022-12-20T11:42:48;100484.19;;;4.19;89.89
17060;BME280;8646;49.716;9.266;2022-12-20T11:46:05;100489.59;;;4.14;90.14
17060;BME280;8646;49.716;9.266;2022-12-20T11:52:59;100471.97;;;3.98;91.25
17060;BME280;8646;49.716;9.266;2022-12-20T11:56:07;100467.50;;;4.00;90.73
17060;BME280;8646;49.716;9.266;2022-12-20T11:59:21;100456.66;;;4.08;90.60
17060;BME280;8646;49.716;9.266;2022-12-20T12:02:36;100459.44;;;4.03;90.82
17060;BME280;8646;49.716;9.266;2022-12-20T12:05:51;100449.59;;;4.05;90.89
17060;BME280;8646;49.716;9.266;2022-12-20T12:09:07;100446.94;;;4.02;91.02
17060;BME280;8646;49.716;9.266;2022-12-20T12:12:20;100450.44;;;4.07;90.56
17060;BME280;8646;49.716;9.266;2022-12-20T12:15:28;100445.25;;;3.95;91.93
17060;BME280;8646;49.716;9.266;2022-12-20T12:18:34;100436.13;;;4.08;90.98
17060;BME280;8646;49.716;9.266;2022-12-20T12:21:43;100442.47;;;4.04;91.02
17060;BME280;8646;49.716;9.266;2022-12-20T12:24:57;100437.22;;;3.97;91.52
17060;BME280;8646;49.716;9.266;2022-12-20T12:28:03;100431.56;;;4.15;91.24
17060;BME280;8646;49.716;9.266;2022-12-20T12:31:10;100430.50;;;4.27;90.35
17060;BME280;8646;49.716;9.266;2022-12-20T12:34:23;100423.56;;;4.13;90.70
17060;BME280;8646;49.716;9.266;2022-12-20T12:37:51;100430.63;;;4.17;91.04
17060;BME280;8646;49.716;9.266;2022-12-20T12:44:32;100407.50;;;4.13;90.95
17060;BME280;8646;49.716;9.266;2022-12-20T12:47:44;100420.13;;;4.05;91.85
17060;BME280;8646;49.716;9.266;2022-12-20T12:50:52;100407.25;;;4.29;91.21
17060;BME280;8646;49.716;9.266;2022-12-20T12:54:03;100403.56;;;4.37;89.94
17060;BME280;8646;49.716;9.266;2022-12-20T12:57:11;100400.88;;;4.37;90.11
17060;BME280;8646;49.716;9.266;2022-12-20T13:00:46;100400.94;;;4.33;90.35
17060;BME280;8646;49.716;9.266;2022-12-20T13:04:20;100406.34;;;4.30;90.66
17060;BME280;8646;49.716;9.266;2022-12-20T13:07:26;100411.00;;;4.18;91.39
17060;BME280;8646;49.716;9.266;2022-12-20T13:11:00;100404.78;;;4.15;91.77
17060;BME280;8646;49.716;9.266;2022-12-20T13:14:47;100393.94;;;4.24;91.13
17060;BME280;8646;49.716;9.266;2022-12-20T13:17:53;100379.59;;;4.28;90.90
17060;BME280;8646;49.716;9.266;2022-12-20T13:21:17;100365.22;;;4.31;91.04
17060;BME280;8646;49.716;9.266;2022-12-20T13:24:36;100372.44;;;4.29;91.30
17060;BME280;8646;49.716;9.266;2022-12-20T13:27:40;100371.03;;;4.05;92.57
17060;BME280;8646;49.716;9.266;2022-12-20T13:30:45;100376.28;;;4.11;93.39
17060;BME280;8646;49.716;9.266;2022-12-20T13:33:49;100297.59;;;4.18;90.23
17060;BME280;8646;49.716;9.266;2022-12-20T13:36:57;100355.13;;;4.48;90.05
17060;BME280;8646;49.716;9.266;2022-12-20T13:40:03;100358.78;;;4.44;90.42
17060;BME280;8646;49.716;9.266;2022-12-20T13:43:19;100383.31;;;4.19;92.19
17060;BME280;8646;49.716;9.266;2022-12-20T13:46:33;100378.47;;;4.40;91.30
17060;BME280;8646;49.716;9.266;2022-12-20T13:49:45;100376.41;;;4.57;90.27
17060;BME280;8646;49.716;9.266;2022-12-20T13:52:48;100367.75;;;4.40;91.01
17060;BME280;8646;49.716;9.266;2022-12-20T13:55:50;100379.50;;;4.33;92.41
17060;BME280;8646;49.716;9.266;2022-12-20T13:58:55;100357.03;;;4.41;91.55
17060;BME280;8646;49.716;9.266;2022-12-20T14:02:03;100365.38;;;4.74;90.10
17060;BME280;8646;49.716;9.266;2022-12-20T14:05:24;100364.69;;;4.63;89.40
17060;BME280;8646;49.716;9.266;2022-12-20T14:08:30;100355.72;;;4.65;89.93
17060;BME280;8646;49.716;9.266;2022-12-20T14:11:45;100348.41;;;4.73;89.61
17060;BME280;8646;49.716;9.266;2022-12-20T14:14:53;100349.84;;;4.45;90.36
17060;BME280;8646;49.716;9.266;2022-12-20T14:18:04;100361.75;;;4.27;92.07
17060;BME280;8646;49.716;9.266;2022-12-20T14:21:08;100358.53;;;4.56;90.54
17060;BME280;8646;49.716;9.266;2022-12-20T14:24:15;100357.13;;;4.35;90.79
17060;BME280;8646;49.716;9.266;2022-12-20T14:27:19;100376.22;;;4.14;92.34
17060;BME280;8646;49.716;9.266;2022-12-20T14:30:34;100375.03;;;4.32;92.30
17060;BME280;8646;49.716;9.266;2022-12-20T14:33:47;100364.28;;;4.36;91.51
17060;BME280;8646;49.716;9.266;2022-12-20T14:37:24;100367.53;;;4.53;90.45
17060;BME280;8646;49.716;9.266;2022-12-20T14:40:29;100365.16;;;4.37;91.22
17060;BME280;8646;49.716;9.266;2022-12-20T14:43:33;100353.31;;;4.50;91.09
17060;BME280;8646;49.716;9.266;2022-12-20T14:46:38;100347.28;;;4.37;90.94
17060;BME280;8646;49.716;9.266;2022-12-20T14:49:54;100338.09;;;4.50;90.37
17060;BME280;8646;49.716;9.266;2022-12-20T14:52:59;100355.34;;;4.36;91.14
17060;BME280;8646;49.716;9.266;2022-12-20T14:56:13;100338.31;;;4.38;91.89
17060;BME280;8646;49.716;9.266;2022-12-20T14:59:23;100330.84;;;4.55;90.59
17060;BME280;8646;49.716;9.266;2022-12-20T15:02:34;100322.34;;;4.32;91.16
17060;BME280;8646;49.716;9.266;2022-12-20T15:05:44;100326.66;;;4.41;91.00
17060;BME280;8646;49.716;9.266;2022-12-20T15:08:47;100327.56;;;4.40;91.15
17060;BME280;8646;49.716;9.266;2022-12-20T15:11:50;100317.81;;;4.37;90.79
17060;BME280;8646;49.716;9.266;2022-12-20T15:14:53;100343.16;;;4.16;92.23
17060;BME280;8646;49.716;9.266;2022-12-20T15:17:58;100350.19;;;4.23;92.98
17060;BME280;8646;49.716;9.266;2022-12-20T15:21:04;100325.88;;;4.36;91.79
17060;BME280;8646;49.716;9.266;2022-12-20T15:24:11;100317.88;;;4.33;92.18
17060;BME280;8646;49.716;9.266;2022-12-20T15:27:15;100310.75;;;4.32;92.11
17060;BME280;8646;49.716;9.266;2022-12-20T15:30:18;100305.34;;;4.35;92.11
17060;BME280;8646;49.716;9.266;2022-12-20T15:33:30;100307.97;;;4.38;91.21
17060;BME280;8646;49.716;9.266;2022-12-20T15:36:35;100300.00;;;4.33;91.88
17060;BME280;8646;49.716;9.266;2022-12-20T15:39:38;100306.56;;;4.15;93.00
17060;BME280;8646;49.716;9.266;2022-12-20T15:42:42;100303.72;;;4.26;91.99
17060;BME280;8646;49.716;9.266;2022-12-20T15:45:46;100295.69;;;4.26;92.49
17060;BME280;8646;49.716;9.266;2022-12-20T15:48:50;100303.75;;;4.23;92.37
17060;BME280;8646;49.716;9.266;2022-12-20T15:51:57;100307.28;;;4.27;92.69
17060;BME280;8646;49.716;9.266;2022-12-20T15:54:59;100310.91;;;4.22;92.54
17060;BME280;8646;49.716;9.266;2022-12-20T15:58:05;100300.94;;;4.31;92.42
17060;BME280;8646;49.716;9.266;2022-12-20T16:01:11;100309.25;;;4.15;92.56
17060;BME280;8646;49.716;9.266;2022-12-20T16:04:19;100312.91;;;4.11;93.08
17060;BME280;8646;49.716;9.266;2022-12-20T16:07:23;100315.47;;;4.17;93.09
17060;BME280;8646;49.716;9.266;2022-12-20T16:10:26;100317.13;;;4.25;92.79
17060;BME280;8646;49.716;9.266;2022-12-20T16:13:29;100300.25;;;4.19;92.80
17060;BME280;8646;49.716;9.266;2022-12-20T16:16:33;100305.59;;;4.21;93.24
17060;BME280;8646;49.716;9.266;2022-12-20T16:19:41;100289.66;;;4.13;92.90
17060;BME280;8646;49.716;9.266;2022-12-20T16:22:51;100299.34;;;4.20;92.74
17060;BME280;8646;49.716;9.266;2022-12-20T16:25:53;100292.13;;;4.24;92.66
17060;BME280;8646;49.716;9.266;2022-12-20T16:28:59;100301.34;;;4.08;93.69
17060;BME280;8646;49.716;9.266;2022-12-20T16:32:11;100313.88;;;4.06;94.55
17060;BME280;8646;49.716;9.266;2022-12-20T16:35:23;100292.22;;;4.19;93.12
17060;BME280;8646;49.716;9.266;2022-12-20T16:38:29;100268.78;;;4.31;92.33
17060;BME280;8646;49.716;9.266;2022-12-20T16:41:32;100270.47;;;4.38;92.21
17060;BME280;8646;49.716;9.266;2022-12-20T16:44:35;100275.13;;;4.27;93.19
17060;BME280;8646;49.716;9.266;2022-12-20T16:47:40;100278.88;;;4.16;93.66
17060;BME280;8646;49.716;9.266;2022-12-20T16:50:43;100282.72;;;4.00;94.44
17060;BME280;8646;49.716;9.266;2022-12-20T16:53:59;100294.53;;;3.89;95.06